sensor_id;sensor_type;location;lat;lon;timestamp;temperature;humidity
21115;DHT22;10715;48.546;9.896;2024-01-07T00:01:35;2.30;99.90
21115;DHT22;10715;48.546;9.896;2024-01-07T00:04:01;2.30;99.90
21115;DHT22;10715;48.546;9.896;2024-01-07T00:06:26;2.30;99.90
21115;DHT22;10715;48.546;9.896;2024-01-07T00:08:52;2.30;99.90
21115;DHT22;10715;48.546;9.896;2024-01-07T00:11:18;2.30;99.90
21115;DHT22;10715;48.546;9.896;2024-01-07T00:13:44;2.30;99.90
21115;DHT22;10715;48.546;9.896;2024-01-07T00:16:10;2.30;99.90
21115;DHT22;10715;48.546;9.896;2024-01-07T00:18:36;2.30;99.90
21115;DHT22;10715;48.546;9.896;2024-01-07T00:21:01;2.30;99.90
21115;DHT22;10715;48.546;9.896;2024-01-07T00:23:27;2.30;99.90
21115;DHT22;10715;48.546;9.896;2024-01-07T00:25:53;2.30;99.90
21115;DHT22;10715;48.546;9.896;2024-01-07T00:28:20;2.30;99.90
21115;DHT22;10715;48.546;9.896;2024-01-07T00:30:46;2.30;99.90
21115;DHT22;10715;48.546;9.896;2024-01-07T00:33:12;2.30;99.90
21115;DHT22;10715;48.546;9.896;2024-01-07T00:35:37;2.30;99.90
21115;DHT22;10715;48.546;9.896;2024-01-07T00:38:03;2.30;99.90
21115;DHT22;10715;48.546;9.896;2024-01-07T00:40:29;2.30;99.90
21115;DHT22;10715;48.546;9.896;2024-01-07T00:42:55;2.30;99.90
21115;DHT22;10715;48.546;9.896;2024-01-07T00:45:20;2.30;99.90
21115;DHT22;10715;48.546;9.896;2024-01-07T00:47:47;2.30;99.90
21115;DHT22;10715;48.546;9.896;2024-01-07T00:50:13;2.30;99.90
21115;DHT22;10715;48.546;9.896;2024-01-07T00:52:38;2.20;99.90
21115;DHT22;10715;48.546;9.896;2024-01-07T00:55:07;2.20;99.90
21115;DHT22;10715;48.546;9.896;2024-01-07T00:57:33;2.20;99.90
21115;DHT22;10715;48.546;9.896;2024-01-07T01:00:00;2.20;99.90
21115;DHT22;10715;48.546;9.896;2024-01-07T01:02:26;2.30;99.90
21115;DHT22;10715;48.546;9.896;2024-01-07T01:04:51;2.30;99.90
21115;DHT22;10715;48.546;9.896;2024-01-07T01:07:17;2.30;99.90
21115;DHT22;10715;48.546;9.896;2024-01-07T01:09:43;2.20;99.90
21115;DHT22;10715;48.546;9.896;2024-01-07T01:12:08;2.20;99.90
21115;DHT22;10715;48.546;9.896;2024-01-07T01:14:34;2.20;99.90
21115;DHT22;10715;48.546;9.896;2024-01-07T01:17:00;2.20;99.90
21115;DHT22;10715;48.546;9.896;2024-01-07T01:19:25;2.20;99.90
21115;DHT22;10715;48.546;9.896;2024-01-07T01:21:51;2.20;99.90
21115;DHT22;10715;48.546;9.896;2024-01-07T01:24:17;2.20;99.90
21115;DHT22;10715;48.546;9.896;2024-01-07T01:26:43;2.10;99.90
21115;DHT22;10715;48.546;9.896;2024-01-07T01:29:08;2.10;99.90
21115;DHT22;10715;48.546;9.896;2024-01-07T01:31:34;2.20;99.90
21115;DHT22;10715;48.546;9.896;2024-01-07T01:34:00;2.20;99.90
21115;DHT22;10715;48.546;9.896;2024-01-07T01:36:25;2.10;99.90
21115;DHT22;10715;48.546;9.896;2024-01-07T01:38:51;2.20;99.90
21115;DHT22;10715;48.546;9.896;2024-01-07T01:41:17;2.10;99.90
21115;DHT22;10715;48.546;9.896;2024-01-07T01:43:43;2.10;99.90
21115;DHT22;10715;48.546;9.896;2024-01-07T01:46:09;2.10;99.90
21115;DHT22;10715;48.546;9.896;2024-01-07T01:48:37;2.10;99.90
21115;DHT22;10715;48.546;9.896;2024-01-07T01:51:04;2.10;99.90
21115;DHT22;10715;48.546;9.896;2024-01-07T01:53:30;2.10;99.90
21115;DHT22;10715;48.546;9.896;2024-01-07T01:55:57;2.10;99.90
21115;DHT22;10715;48.546;9.896;2024-01-07T01:58:25;2.10;99.90
21115;DHT22;10715;48.546;9.896;2024-01-07T02:00:51;2.10;99.90
21115;DHT22;10715;48.546;9.896;2024-01-07T02:03:17;2.10;99.90
21115;DHT22;10715;48.546;9.896;2024-01-07T02:05:43;2.10;99.90
21115;DHT22;10715;48.546;9.896;2024-01-07T02:08:10;2.10;99.90
21115;DHT22;10715;48.546;9.896;2024-01-07T02:10:36;2.10;99.90
21115;DHT22;10715;48.546;9.896;2024-01-07T02:13:03;2.10;99.90
21115;DHT22;10715;48.546;9.896;2024-01-07T02:15:29;2.10;99.90
21115;DHT22;10715;48.546;9.896;2024-01-07T02:17:55;2.10;99.90
21115;DHT22;10715;48.546;9.896;2024-01-07T02:20:21;2.10;99.90
21115;DHT22;10715;48.546;9.896;2024-01-07T02:22:47;2.10;99.90
21115;DHT22;10715;48.546;9.896;2024-01-07T02:25:12;2.10;99.90
21115;DHT22;10715;48.546;9.896;2024-01-07T02:27:38;2.10;99.90
21115;DHT22;10715;48.546;9.896;2024-01-07T02:30:04;2.10;99.90
21115;DHT22;10715;48.546;9.896;2024-01-07T02:32:30;2.10;99.90
21115;DHT22;10715;48.546;9.896;2024-01-07T02:35:01;2.10;99.90
21115;DHT22;10715;48.546;9.896;2024-01-07T02:37:27;2.20;99.90
21115;DHT22;10715;48.546;9.896;2024-01-07T02:39:53;2.20;99.90
21115;DHT22;10715;48.546;9.896;2024-01-07T02:42:18;2.20;99.90
21115;DHT22;10715;48.546;9.896;2024-01-07T02:44:44;2.10;99.90
21115;DHT22;10715;48.546;9.896;2024-01-07T02:47:10;2.10;99.90
21115;DHT22;10715;48.546;9.896;2024-01-07T02:49:35;2.10;99.90
21115;DHT22;10715;48.546;9.896;2024-01-07T02:52:01;2.10;99.90
21115;DHT22;10715;48.546;9.896;2024-01-07T02:54:27;2.10;99.90
21115;DHT22;10715;48.546;9.896;2024-01-07T02:56:53;2.20;99.90
21115;DHT22;10715;48.546;9.896;2024-01-07T02:59:19;2.10;99.90
21115;DHT22;10715;48.546;9.896;2024-01-07T03:01:45;2.10;99.90
21115;DHT22;10715;48.546;9.896;2024-01-07T03:04:13;2.10;99.90
21115;DHT22;10715;48.546;9.896;2024-01-07T03:06:39;2.10;99.90
21115;DHT22;10715;48.546;9.896;2024-01-07T03:09:04;2.10;99.90
21115;DHT22;10715;48.546;9.896;2024-01-07T03:11:30;2.10;99.90
21115;DHT22;10715;48.546;9.896;2024-01-07T03:13:56;2.10;99.90
21115;DHT22;10715;48.546;9.896;2024-01-07T03:16:23;2.10;99.90
21115;DHT22;10715;48.546;9.896;2024-01-07T03:18:49;2.10;99.90
21115;DHT22;10715;48.546;9.896;2024-01-07T03:21:23;2.10;99.90
21115;DHT22;10715;48.546;9.896;2024-01-07T03:23:50;2.10;99.90
21115;DHT22;10715;48.546;9.896;2024-01-07T03:26:17;2.10;99.90
21115;DHT22;10715;48.546;9.896;2024-01-07T03:28:43;2.10;99.90
21115;DHT22;10715;48.546;9.896;2024-01-07T03:31:12;2.10;99.90
21115;DHT22;10715;48.546;9.896;2024-01-07T03:33:38;2.00;99.90
21115;DHT22;10715;48.546;9.896;2024-01-07T03:36:11;2.10;99.90
21115;DHT22;10715;48.546;9.896;2024-01-07T03:38:38;2.00;99.90
21115;DHT22;10715;48.546;9.896;2024-01-07T03:41:04;2.00;99.90
21115;DHT22;10715;48.546;9.896;2024-01-07T03:43:30;2.00;99.90
21115;DHT22;10715;48.546;9.896;2024-01-07T03:45:56;2.00;99.90
21115;DHT22;10715;48.546;9.896;2024-01-07T03:48:22;2.00;99.90
21115;DHT22;10715;48.546;9.896;2024-01-07T03:50:48;2.00;99.90
21115;DHT22;10715;48.546;9.896;2024-01-07T03:53:14;2.00;99.90
21115;DHT22;10715;48.546;9.896;2024-01-07T03:55:40;2.00;99.90
21115;DHT22;10715;48.546;9.896;2024-01-07T03:58:06;2.00;99.90
21115;DHT22;10715;48.546;9.896;2024-01-07T04:00:33;2.00;99.90
21115;DHT22;10715;48.546;9.896;2024-01-07T04:02:59;2.00;99.90
21115;DHT22;10715;48.546;9.896;2024-01-07T04:05:25;2.00;99.90
21115;DHT22;10715;48.546;9.896;2024-01-07T04:07:51;2.00;99.90
21115;DHT22;10715;48.546;9.896;2024-01-07T04:10:17;2.00;99.90
21115;DHT22;10715;48.546;9.896;2024-01-07T04:12:43;2.00;99.90
21115;DHT22;10715;48.546;9.896;2024-01-07T04:15:10;1.90;99.90
21115;DHT22;10715;48.546;9.896;2024-01-07T04:17:35;1.90;99.90
21115;DHT22;10715;48.546;9.896;2024-01-07T04:20:01;1.90;99.90
21115;DHT22;10715;48.546;9.896;2024-01-07T04:22:27;1.90;99.90
21115;DHT22;10715;48.546;9.896;2024-01-07T04:24:52;1.90;99.90
21115;DHT22;10715;48.546;9.896;2024-01-07T04:27:18;1.80;99.90
21115;DHT22;10715;48.546;9.896;2024-01-07T04:29:44;1.80;99.90
21115;DHT22;10715;48.546;9.896;2024-01-07T04:32:09;1.80;99.90
21115;DHT22;10715;48.546;9.896;2024-01-07T04:34:35;1.90;99.90
21115;DHT22;10715;48.546;9.896;2024-01-07T04:37:01;1.80;99.90
21115;DHT22;10715;48.546;9.896;2024-01-07T04:39:26;1.80;99.90
21115;DHT22;10715;48.546;9.896;2024-01-07T04:41:52;1.80;99.90
21115;DHT22;10715;48.546;9.896;2024-01-07T04:44:18;1.80;99.90
21115;DHT22;10715;48.546;9.896;2024-01-07T04:46:44;1.80;99.90
21115;DHT22;10715;48.546;9.896;2024-01-07T04:49:10;1.80;99.90
21115;DHT22;10715;48.546;9.896;2024-01-07T04:51:35;1.80;99.90
21115;DHT22;10715;48.546;9.896;2024-01-07T04:54:04;1.80;99.90
21115;DHT22;10715;48.546;9.896;2024-01-07T04:56:31;1.80;99.90
21115;DHT22;10715;48.546;9.896;2024-01-07T04:58:57;1.80;99.90
21115;DHT22;10715;48.546;9.896;2024-01-07T05:01:23;1.80;99.90
21115;DHT22;10715;48.546;9.896;2024-01-07T05:03:49;1.80;99.90
21115;DHT22;10715;48.546;9.896;2024-01-07T05:06:15;1.80;99.90
21115;DHT22;10715;48.546;9.896;2024-01-07T05:08:41;1.80;99.90
21115;DHT22;10715;48.546;9.896;2024-01-07T05:11:07;1.80;99.90
21115;DHT22;10715;48.546;9.896;2024-01-07T05:13:33;1.80;99.90
21115;DHT22;10715;48.546;9.896;2024-01-07T05:15:59;1.80;99.90
21115;DHT22;10715;48.546;9.896;2024-01-07T05:18:25;1.80;99.90
21115;DHT22;10715;48.546;9.896;2024-01-07T05:20:51;1.80;99.90
21115;DHT22;10715;48.546;9.896;2024-01-07T05:23:17;1.80;99.90
21115;DHT22;10715;48.546;9.896;2024-01-07T05:25:44;1.70;99.90
21115;DHT22;10715;48.546;9.896;2024-01-07T05:28:10;1.80;99.90
21115;DHT22;10715;48.546;9.896;2024-01-07T05:30:36;1.70;99.90
21115;DHT22;10715;48.546;9.896;2024-01-07T05:33:02;1.80;99.90
21115;DHT22;10715;48.546;9.896;2024-01-07T05:35:28;1.80;99.90
21115;DHT22;10715;48.546;9.896;2024-01-07T05:37:53;1.80;99.90
21115;DHT22;10715;48.546;9.896;2024-01-07T05:40:19;1.80;99.90
21115;DHT22;10715;48.546;9.896;2024-01-07T05:42:45;1.80;99.90
21115;DHT22;10715;48.546;9.896;2024-01-07T05:45:10;1.80;99.90
21115;DHT22;10715;48.546;9.896;2024-01-07T05:47:36;1.70;99.90
21115;DHT22;10715;48.546;9.896;2024-01-07T05:50:02;1.70;99.90
21115;DHT22;10715;48.546;9.896;2024-01-07T05:52:28;1.70;99.90
21115;DHT22;10715;48.546;9.896;2024-01-07T05:54:53;1.70;99.90
21115;DHT22;10715;48.546;9.896;2024-01-07T05:57:19;1.70;99.90
21115;DHT22;10715;48.546;9.896;2024-01-07T05:59:45;1.70;99.90
21115;DHT22;10715;48.546;9.896;2024-01-07T06:02:11;1.80;99.90
21115;DHT22;10715;48.546;9.896;2024-01-07T06:04:38;1.70;99.90
21115;DHT22;10715;48.546;9.896;2024-01-07T06:07:04;1.70;99.90
21115;DHT22;10715;48.546;9.896;2024-01-07T06:09:30;1.70;99.90
21115;DHT22;10715;48.546;9.896;2024-01-07T06:11:55;1.70;99.90
21115;DHT22;10715;48.546;9.896;2024-01-07T06:14:22;1.70;99.90
21115;DHT22;10715;48.546;9.896;2024-01-07T06:16:48;1.70;99.90
21115;DHT22;10715;48.546;9.896;2024-01-07T06:19:16;1.70;99.90
21115;DHT22;10715;48.546;9.896;2024-01-07T06:21:41;1.70;99.90
21115;DHT22;10715;48.546;9.896;2024-01-07T06:24:11;1.70;99.90
21115;DHT22;10715;48.546;9.896;2024-01-07T06:26:37;1.70;99.90
21115;DHT22;10715;48.546;9.896;2024-01-07T06:29:02;1.60;99.90
21115;DHT22;10715;48.546;9.896;2024-01-07T06:31:28;1.70;99.90
21115;DHT22;10715;48.546;9.896;2024-01-07T06:33:54;1.70;99.90
21115;DHT22;10715;48.546;9.896;2024-01-07T06:36:22;1.70;99.90
21115;DHT22;10715;48.546;9.896;2024-01-07T06:38:47;1.70;99.90
21115;DHT22;10715;48.546;9.896;2024-01-07T06:41:14;1.70;99.90
21115;DHT22;10715;48.546;9.896;2024-01-07T06:43:40;1.70;99.90
21115;DHT22;10715;48.546;9.896;2024-01-07T06:46:05;1.60;99.90
21115;DHT22;10715;48.546;9.896;2024-01-07T06:48:31;1.70;99.90
21115;DHT22;10715;48.546;9.896;2024-01-07T06:50:57;1.70;99.90
21115;DHT22;10715;48.546;9.896;2024-01-07T06:53:23;1.70;99.90
21115;DHT22;10715;48.546;9.896;2024-01-07T06:55:49;1.60;99.90
21115;DHT22;10715;48.546;9.896;2024-01-07T06:58:15;1.70;99.90
21115;DHT22;10715;48.546;9.896;2024-01-07T07:00:40;1.70;99.90
21115;DHT22;10715;48.546;9.896;2024-01-07T07:03:06;1.70;99.90
21115;DHT22;10715;48.546;9.896;2024-01-07T07:05:33;1.70;99.90
21115;DHT22;10715;48.546;9.896;2024-01-07T07:07:58;1.70;99.90
21115;DHT22;10715;48.546;9.896;2024-01-07T07:10:24;1.70;99.90
21115;DHT22;10715;48.546;9.896;2024-01-07T07:12:50;1.60;99.90
21115;DHT22;10715;48.546;9.896;2024-01-07T07:15:17;1.60;99.90
21115;DHT22;10715;48.546;9.896;2024-01-07T07:17:43;1.60;99.90
21115;DHT22;10715;48.546;9.896;2024-01-07T07:20:09;1.60;99.90
21115;DHT22;10715;48.546;9.896;2024-01-07T07:22:35;1.60;99.90
21115;DHT22;10715;48.546;9.896;2024-01-07T07:25:01;1.60;99.90
21115;DHT22;10715;48.546;9.896;2024-01-07T07:27:27;1.60;99.90
21115;DHT22;10715;48.546;9.896;2024-01-07T07:29:53;1.60;99.90
21115;DHT22;10715;48.546;9.896;2024-01-07T07:32:19;1.60;99.90
21115;DHT22;10715;48.546;9.896;2024-01-07T07:34:45;1.60;99.90
21115;DHT22;10715;48.546;9.896;2024-01-07T07:37:12;1.60;99.90
21115;DHT22;10715;48.546;9.896;2024-01-07T07:39:38;1.60;99.90
21115;DHT22;10715;48.546;9.896;2024-01-07T07:42:04;1.60;99.90
21115;DHT22;10715;48.546;9.896;2024-01-07T07:44:30;1.60;99.90
21115;DHT22;10715;48.546;9.896;2024-01-07T07:46:56;1.60;99.90
21115;DHT22;10715;48.546;9.896;2024-01-07T07:49:21;1.60;99.90
21115;DHT22;10715;48.546;9.896;2024-01-07T07:51:47;1.60;99.90
21115;DHT22;10715;48.546;9.896;2024-01-07T07:54:13;1.60;99.90
21115;DHT22;10715;48.546;9.896;2024-01-07T07:56:38;1.60;99.90
21115;DHT22;10715;48.546;9.896;2024-01-07T07:59:04;1.60;99.90
21115;DHT22;10715;48.546;9.896;2024-01-07T08:01:30;1.60;99.90
21115;DHT22;10715;48.546;9.896;2024-01-07T08:03:56;1.60;99.90
21115;DHT22;10715;48.546;9.896;2024-01-07T08:06:21;1.60;99.90
21115;DHT22;10715;48.546;9.896;2024-01-07T08:08:47;1.60;99.90
21115;DHT22;10715;48.546;9.896;2024-01-07T08:11:13;1.60;99.90
21115;DHT22;10715;48.546;9.896;2024-01-07T08:13:39;1.60;99.90
21115;DHT22;10715;48.546;9.896;2024-01-07T08:16:05;1.50;99.90
21115;DHT22;10715;48.546;9.896;2024-01-07T08:18:31;1.50;99.90
21115;DHT22;10715;48.546;9.896;2024-01-07T08:20:57;1.50;99.90
21115;DHT22;10715;48.546;9.896;2024-01-07T08:23:26;1.50;99.90
21115;DHT22;10715;48.546;9.896;2024-01-07T08:25:52;1.50;99.90
21115;DHT22;10715;48.546;9.896;2024-01-07T08:28:18;1.50;99.90
21115;DHT22;10715;48.546;9.896;2024-01-07T08:30:44;1.50;99.90
21115;DHT22;10715;48.546;9.896;2024-01-07T08:33:11;1.40;99.90
21115;DHT22;10715;48.546;9.896;2024-01-07T08:35:36;1.40;99.90
21115;DHT22;10715;48.546;9.896;2024-01-07T08:38:02;1.40;99.90
21115;DHT22;10715;48.546;9.896;2024-01-07T08:40:29;1.40;99.90
21115;DHT22;10715;48.546;9.896;2024-01-07T08:42:55;1.40;99.90
21115;DHT22;10715;48.546;9.896;2024-01-07T08:45:21;1.40;99.90
21115;DHT22;10715;48.546;9.896;2024-01-07T08:47:47;1.30;99.90
21115;DHT22;10715;48.546;9.896;2024-01-07T08:50:13;1.30;99.90
21115;DHT22;10715;48.546;9.896;2024-01-07T08:52:38;1.30;99.90
21115;DHT22;10715;48.546;9.896;2024-01-07T08:55:04;1.20;99.90
21115;DHT22;10715;48.546;9.896;2024-01-07T08:57:32;1.30;99.90
21115;DHT22;10715;48.546;9.896;2024-01-07T08:59:58;1.20;99.90
21115;DHT22;10715;48.546;9.896;2024-01-07T09:02:24;1.20;99.90
21115;DHT22;10715;48.546;9.896;2024-01-07T09:04:51;1.20;99.90
21115;DHT22;10715;48.546;9.896;2024-01-07T09:07:17;1.10;99.90
21115;DHT22;10715;48.546;9.896;2024-01-07T09:09:44;1.10;99.90
21115;DHT22;10715;48.546;9.896;2024-01-07T09:12:10;1.10;99.90
21115;DHT22;10715;48.546;9.896;2024-01-07T09:14:37;1.00;99.90
21115;DHT22;10715;48.546;9.896;2024-01-07T09:17:04;1.00;99.90
21115;DHT22;10715;48.546;9.896;2024-01-07T09:19:29;1.00;99.90
21115;DHT22;10715;48.546;9.896;2024-01-07T09:21:55;1.00;99.90
21115;DHT22;10715;48.546;9.896;2024-01-07T09:24:21;0.90;99.90
21115;DHT22;10715;48.546;9.896;2024-01-07T09:26:47;0.90;99.90
21115;DHT22;10715;48.546;9.896;2024-01-07T09:29:13;0.90;99.90
21115;DHT22;10715;48.546;9.896;2024-01-07T09:31:39;0.90;99.90
21115;DHT22;10715;48.546;9.896;2024-01-07T09:34:05;0.90;99.90
21115;DHT22;10715;48.546;9.896;2024-01-07T09:36:32;0.90;99.90
21115;DHT22;10715;48.546;9.896;2024-01-07T09:38:58;0.90;99.90
21115;DHT22;10715;48.546;9.896;2024-01-07T09:41:24;0.80;99.90
21115;DHT22;10715;48.546;9.896;2024-01-07T09:43:51;0.80;99.90
21115;DHT22;10715;48.546;9.896;2024-01-07T09:46:20;0.80;99.90
21115;DHT22;10715;48.546;9.896;2024-01-07T09:48:46;0.80;99.90
21115;DHT22;10715;48.546;9.896;2024-01-07T09:51:12;0.80;99.90
21115;DHT22;10715;48.546;9.896;2024-01-07T09:53:39;0.80;99.90
21115;DHT22;10715;48.546;9.896;2024-01-07T09:58:44;0.70;99.90
21115;DHT22;10715;48.546;9.896;2024-01-07T10:01:10;0.70;99.90
21115;DHT22;10715;48.546;9.896;2024-01-07T10:03:36;0.70;99.90
21115;DHT22;10715;48.546;9.896;2024-01-07T10:06:03;0.70;99.90
21115;DHT22;10715;48.546;9.896;2024-01-07T10:08:29;0.70;99.90
21115;DHT22;10715;48.546;9.896;2024-01-07T10:10:54;0.70;99.90
21115;DHT22;10715;48.546;9.896;2024-01-07T10:13:21;0.70;99.90
21115;DHT22;10715;48.546;9.896;2024-01-07T10:15:47;0.70;99.90
21115;DHT22;10715;48.546;9.896;2024-01-07T10:18:14;0.70;99.90
21115;DHT22;10715;48.546;9.896;2024-01-07T10:20:39;0.70;99.90
21115;DHT22;10715;48.546;9.896;2024-01-07T10:23:05;0.70;99.90
21115;DHT22;10715;48.546;9.896;2024-01-07T10:25:33;0.60;99.90
21115;DHT22;10715;48.546;9.896;2024-01-07T10:28:03;0.70;99.90
21115;DHT22;10715;48.546;9.896;2024-01-07T10:30:29;0.70;99.90
21115;DHT22;10715;48.546;9.896;2024-01-07T10:32:58;0.60;99.90
21115;DHT22;10715;48.546;9.896;2024-01-07T10:35:35;0.60;99.90
21115;DHT22;10715;48.546;9.896;2024-01-07T10:38:01;0.60;99.90
21115;DHT22;10715;48.546;9.896;2024-01-07T10:40:29;0.60;99.90
21115;DHT22;10715;48.546;9.896;2024-01-07T10:42:56;0.60;99.90
21115;DHT22;10715;48.546;9.896;2024-01-07T10:45:22;0.50;99.90
21115;DHT22;10715;48.546;9.896;2024-01-07T10:47:49;0.50;99.90
21115;DHT22;10715;48.546;9.896;2024-01-07T10:50:17;0.50;99.90
21115;DHT22;10715;48.546;9.896;2024-01-07T10:52:48;0.50;99.90
21115;DHT22;10715;48.546;9.896;2024-01-07T10:55:14;0.50;99.90
21115;DHT22;10715;48.546;9.896;2024-01-07T10:57:43;0.50;99.90
21115;DHT22;10715;48.546;9.896;2024-01-07T11:00:12;0.50;99.90
21115;DHT22;10715;48.546;9.896;2024-01-07T11:10:51;0.40;99.90
21115;DHT22;10715;48.546;9.896;2024-01-07T11:13:38;0.50;99.90
21115;DHT22;10715;48.546;9.896;2024-01-07T11:16:05;0.40;99.90
21115;DHT22;10715;48.546;9.896;2024-01-07T11:18:31;0.40;99.90
21115;DHT22;10715;48.546;9.896;2024-01-07T11:21:02;0.40;99.90
21115;DHT22;10715;48.546;9.896;2024-01-07T11:23:43;0.40;99.90
21115;DHT22;10715;48.546;9.896;2024-01-07T11:26:08;0.40;99.90
21115;DHT22;10715;48.546;9.896;2024-01-07T11:28:53;0.40;99.90
21115;DHT22;10715;48.546;9.896;2024-01-07T11:31:21;0.40;99.90
21115;DHT22;10715;48.546;9.896;2024-01-07T11:34:07;0.40;99.90
21115;DHT22;10715;48.546;9.896;2024-01-07T11:36:35;0.40;99.90
21115;DHT22;10715;48.546;9.896;2024-01-07T11:39:02;0.40;99.90
21115;DHT22;10715;48.546;9.896;2024-01-07T11:41:32;0.40;99.90
21115;DHT22;10715;48.546;9.896;2024-01-07T11:43:59;0.40;99.90
21115;DHT22;10715;48.546;9.896;2024-01-07T11:46:26;0.40;99.90
21115;DHT22;10715;48.546;9.896;2024-01-07T11:48:57;0.40;99.90
21115;DHT22;10715;48.546;9.896;2024-01-07T11:51:31;0.40;99.90
21115;DHT22;10715;48.546;9.896;2024-01-07T11:54:00;0.40;99.90
21115;DHT22;10715;48.546;9.896;2024-01-07T11:56:27;0.30;99.90
21115;DHT22;10715;48.546;9.896;2024-01-07T11:58:53;0.30;99.90
21115;DHT22;10715;48.546;9.896;2024-01-07T12:01:19;0.30;99.90
21115;DHT22;10715;48.546;9.896;2024-01-07T12:03:46;0.20;99.90
21115;DHT22;10715;48.546;9.896;2024-01-07T12:06:12;0.20;99.90
21115;DHT22;10715;48.546;9.896;2024-01-07T12:08:48;0.20;99.90
21115;DHT22;10715;48.546;9.896;2024-01-07T12:11:14;0.20;99.90
21115;DHT22;10715;48.546;9.896;2024-01-07T12:13:41;0.20;99.90
21115;DHT22;10715;48.546;9.896;2024-01-07T12:16:08;0.20;99.90
21115;DHT22;10715;48.546;9.896;2024-01-07T12:18:38;0.20;99.90
21115;DHT22;10715;48.546;9.896;2024-01-07T12:21:04;0.20;99.90
21115;DHT22;10715;48.546;9.896;2024-01-07T12:23:37;0.10;99.90
21115;DHT22;10715;48.546;9.896;2024-01-07T12:26:10;0.10;99.90
21115;DHT22;10715;48.546;9.896;2024-01-07T12:28:37;0.10;99.90
21115;DHT22;10715;48.546;9.896;2024-01-07T12:31:07;0.10;99.90
21115;DHT22;10715;48.546;9.896;2024-01-07T12:33:36;0.10;99.90
21115;DHT22;10715;48.546;9.896;2024-01-07T12:36:03;0.10;99.90
21115;DHT22;10715;48.546;9.896;2024-01-07T12:38:29;0.10;99.90
21115;DHT22;10715;48.546;9.896;2024-01-07T12:40:55;0.10;99.90
21115;DHT22;10715;48.546;9.896;2024-01-07T12:43:21;0.10;99.90
21115;DHT22;10715;48.546;9.896;2024-01-07T12:45:48;0.10;99.90
21115;DHT22;10715;48.546;9.896;2024-01-07T12:48:14;0.10;99.90
21115;DHT22;10715;48.546;9.896;2024-01-07T12:50:40;0.10;99.90
21115;DHT22;10715;48.546;9.896;2024-01-07T12:53:06;0.00;99.90
21115;DHT22;10715;48.546;9.896;2024-01-07T12:55:32;0.00;99.90
21115;DHT22;10715;48.546;9.896;2024-01-07T12:57:57;0.00;99.90
21115;DHT22;10715;48.546;9.896;2024-01-07T13:00:24;0.00;99.90
21115;DHT22;10715;48.546;9.896;2024-01-07T13:02:51;0.00;99.90
21115;DHT22;10715;48.546;9.896;2024-01-07T13:05:17;0.00;99.90
21115;DHT22;10715;48.546;9.896;2024-01-07T13:07:43;0.00;99.90
21115;DHT22;10715;48.546;9.896;2024-01-07T13:10:08;0.00;99.90
21115;DHT22;10715;48.546;9.896;2024-01-07T13:12:37;-0.10;99.90
21115;DHT22;10715;48.546;9.896;2024-01-07T13:15:04;-0.10;99.90
21115;DHT22;10715;48.546;9.896;2024-01-07T13:17:30;-0.10;99.90
21115;DHT22;10715;48.546;9.896;2024-01-07T13:19:56;-0.10;99.90
21115;DHT22;10715;48.546;9.896;2024-01-07T13:22:22;-0.10;99.90
21115;DHT22;10715;48.546;9.896;2024-01-07T13:24:47;-0.20;99.90
21115;DHT22;10715;48.546;9.896;2024-01-07T13:27:13;-0.20;99.90
21115;DHT22;10715;48.546;9.896;2024-01-07T13:29:39;-0.20;99.90
21115;DHT22;10715;48.546;9.896;2024-01-07T13:32:06;-0.20;99.90
21115;DHT22;10715;48.546;9.896;2024-01-07T13:34:32;-0.20;99.90
21115;DHT22;10715;48.546;9.896;2024-01-07T13:36:58;-0.20;99.90
21115;DHT22;10715;48.546;9.896;2024-01-07T13:39:24;-0.30;99.90
21115;DHT22;10715;48.546;9.896;2024-01-07T13:41:50;-0.30;99.90
21115;DHT22;10715;48.546;9.896;2024-01-07T13:44:15;-0.30;99.90
21115;DHT22;10715;48.546;9.896;2024-01-07T13:46:45;-0.30;99.90
21115;DHT22;10715;48.546;9.896;2024-01-07T13:49:12;-0.30;99.90
21115;DHT22;10715;48.546;9.896;2024-01-07T13:51:39;-0.30;99.90
21115;DHT22;10715;48.546;9.896;2024-01-07T13:54:05;-0.30;99.90
21115;DHT22;10715;48.546;9.896;2024-01-07T13:56:32;-0.30;99.90
21115;DHT22;10715;48.546;9.896;2024-01-07T13:59:01;-0.30;99.90
21115;DHT22;10715;48.546;9.896;2024-01-07T14:01:29;-0.30;99.90
21115;DHT22;10715;48.546;9.896;2024-01-07T14:03:55;-0.40;99.90
21115;DHT22;10715;48.546;9.896;2024-01-07T14:06:21;-0.40;99.90
21115;DHT22;10715;48.546;9.896;2024-01-07T14:08:47;-0.40;99.90
21115;DHT22;10715;48.546;9.896;2024-01-07T14:11:12;-0.40;99.90
21115;DHT22;10715;48.546;9.896;2024-01-07T14:13:38;-0.50;99.90
21115;DHT22;10715;48.546;9.896;2024-01-07T14:16:04;-0.40;99.90
21115;DHT22;10715;48.546;9.896;2024-01-07T14:18:30;-0.40;99.90
21115;DHT22;10715;48.546;9.896;2024-01-07T14:20:56;-0.40;99.90
21115;DHT22;10715;48.546;9.896;2024-01-07T14:23:21;-0.50;99.90
21115;DHT22;10715;48.546;9.896;2024-01-07T14:25:47;-0.50;99.90
21115;DHT22;10715;48.546;9.896;2024-01-07T14:28:13;-0.50;99.90
21115;DHT22;10715;48.546;9.896;2024-01-07T14:30:39;-0.50;99.90
21115;DHT22;10715;48.546;9.896;2024-01-07T14:33:04;-0.50;99.90
21115;DHT22;10715;48.546;9.896;2024-01-07T14:35:30;-0.50;99.90
21115;DHT22;10715;48.546;9.896;2024-01-07T14:37:58;-0.50;99.90
21115;DHT22;10715;48.546;9.896;2024-01-07T14:40:25;-0.50;99.90
21115;DHT22;10715;48.546;9.896;2024-01-07T14:42:51;-0.50;99.90
21115;DHT22;10715;48.546;9.896;2024-01-07T14:45:20;-0.60;99.90
21115;DHT22;10715;48.546;9.896;2024-01-07T14:47:46;-0.60;99.90
21115;DHT22;10715;48.546;9.896;2024-01-07T14:50:12;-0.60;99.90
21115;DHT22;10715;48.546;9.896;2024-01-07T14:52:38;-0.60;99.90
21115;DHT22;10715;48.546;9.896;2024-01-07T14:55:04;-0.60;99.90
21115;DHT22;10715;48.546;9.896;2024-01-07T14:57:30;-0.60;99.90
21115;DHT22;10715;48.546;9.896;2024-01-07T14:59:56;-0.60;99.90
21115;DHT22;10715;48.546;9.896;2024-01-07T15:02:21;-0.70;99.90
21115;DHT22;10715;48.546;9.896;2024-01-07T15:04:47;-0.70;99.90
21115;DHT22;10715;48.546;9.896;2024-01-07T15:07:13;-0.70;99.90
21115;DHT22;10715;48.546;9.896;2024-01-07T15:09:39;-0.80;99.90
21115;DHT22;10715;48.546;9.896;2024-01-07T15:12:06;-0.80;99.90
21115;DHT22;10715;48.546;9.896;2024-01-07T15:14:32;-0.90;99.90
21115;DHT22;10715;48.546;9.896;2024-01-07T15:16:58;-0.90;99.90
21115;DHT22;10715;48.546;9.896;2024-01-07T15:19:24;-0.90;99.90
21115;DHT22;10715;48.546;9.896;2024-01-07T15:21:50;-1.00;99.90
21115;DHT22;10715;48.546;9.896;2024-01-07T15:24:16;-1.00;99.90
21115;DHT22;10715;48.546;9.896;2024-01-07T15:26:42;-1.00;99.90
21115;DHT22;10715;48.546;9.896;2024-01-07T15:29:08;-1.10;99.90
21115;DHT22;10715;48.546;9.896;2024-01-07T15:31:34;-1.10;99.90
21115;DHT22;10715;48.546;9.896;2024-01-07T15:33:59;-1.10;99.90
21115;DHT22;10715;48.546;9.896;2024-01-07T15:36:25;-1.10;99.90
21115;DHT22;10715;48.546;9.896;2024-01-07T15:38:51;-1.10;99.90
21115;DHT22;10715;48.546;9.896;2024-01-07T15:41:16;-1.10;99.90
21115;DHT22;10715;48.546;9.896;2024-01-07T15:43:42;-1.10;99.90
21115;DHT22;10715;48.546;9.896;2024-01-07T15:46:08;-1.10;99.90
21115;DHT22;10715;48.546;9.896;2024-01-07T15:48:33;-1.10;99.90